Time;durP1;ratioP1;P1;durP2;ratioP2;P2;SDS_P1;SDS_P2;PMS_P1;PMS_P2;Temp;Humidity;BMP_temperature;BMP_pressure;BME280_temperature;BME280_humidity;BME280_pressure;Samples;Min_cycle;Max_cycle;Signal;HPM_P1;HPM_P2
2023/11/23 00:02:11;;;;;;;10.82;2.30;;;;;;;-146.27;85.64;31861.09;5104976;28;20451;-69
2023/11/23 00:04:37;;;;;;;9.48;2.42;;;;;;;-146.27;85.39;31793.66;5098093;28;20039;-69
2023/11/23 00:07:02;;;;;;;13.68;2.90;;;;;;;-146.27;85.39;31857.13;5111431;28;20172;-69
2023/11/23 00:09:28;;;;;;;16.70;2.55;;;;;;;-146.27;85.42;31857.13;5085242;28;20039;-69
2023/11/23 00:11:54;;;;;;;6.07;2.40;;;;;;;-146.27;86.34;31932.50;5097880;28;20016;-69
2023/11/23 00:14:19;;;;;;;16.17;3.05;;;;;;;-146.27;86.10;31843.25;5095170;28;20078;-68
2023/11/23 00:16:45;;;;;;;12.48;2.45;;;;;;;-146.27;86.04;31910.69;5095201;28;20472;-68
2023/11/23 00:19:11;;;;;;;15.80;2.55;;;;;;;-146.27;85.78;31847.22;5102008;28;20039;-68
2023/11/23 00:21:36;;;;;;;12.45;2.35;;;;;;;-146.27;86.72;31910.69;5084531;28;20027;-67
2023/11/23 00:24:02;;;;;;;8.73;2.03;;;;;;;-146.27;86.16;31819.44;5109947;28;20034;-69
2023/11/23 00:26:27;;;;;;;9.20;2.45;;;;;;;-146.27;86.29;31871.00;5104823;28;20031;-69
2023/11/23 00:28:53;;;;;;;23.00;3.30;;;;;;;-146.27;85.65;31789.69;5104129;28;20031;-69
2023/11/23 00:31:18;;;;;;;14.50;2.78;;;;;;;-146.27;85.80;31849.19;5108853;28;20023;-68
2023/11/23 00:33:44;;;;;;;12.68;2.40;;;;;;;-146.27;85.32;31736.16;5102167;28;20058;-68
2023/11/23 00:36:10;;;;;;;6.90;2.05;;;;;;;-146.27;85.62;31724.25;5099146;28;20051;-69
2023/11/23 00:38:36;;;;;;;10.80;3.38;;;;;;;-146.27;86.69;31916.63;5091736;28;20581;-68
2023/11/23 00:41:01;;;;;;;9.13;2.13;;;;;;;-146.27;86.35;31855.16;5096912;28;20035;-69
2023/11/23 00:43:27;;;;;;;12.23;3.15;;;;;;;-146.27;86.16;31807.53;5101662;28;20518;-69
2023/11/23 00:45:52;;;;;;;17.83;2.58;;;;;;;-146.27;85.14;31736.16;5095728;28;20037;-69
2023/11/23 00:48:17;;;;;;;7.70;2.15;;;;;;;-146.27;84.53;31688.53;5094269;28;20475;-69
2023/11/23 00:50:43;;;;;;;15.60;2.35;;;;;;;-146.27;84.81;31700.44;5096450;28;20024;-69
2023/11/23 00:53:08;;;;;;;12.18;2.13;;;;;;;-146.27;85.38;31732.19;5110415;28;20482;-69
2023/11/23 00:55:33;;;;;;;9.65;3.88;;;;;;;-146.27;86.22;31873.00;5103892;28;20063;-69
2023/11/23 00:57:59;;;;;;;8.35;2.38;;;;;;;-146.27;86.05;31807.53;5102513;28;20043;-69
2023/11/23 01:00:24;;;;;;;15.27;2.80;;;;;;;-146.27;85.64;31775.81;5097798;28;20065;-68
2023/11/23 01:02:50;;;;;;;13.93;2.58;;;;;;;-146.27;85.48;31767.88;5091320;28;20056;-67
2023/11/23 01:05:18;;;;;;;12.82;2.85;;;;;;;-146.27;85.91;31896.78;5098592;28;20438;-70
2023/11/23 01:07:44;;;;;;;6.70;2.33;;;;;;;-146.27;86.48;31962.25;5098682;28;20432;-69
2023/11/23 01:10:10;;;;;;;11.98;2.33;;;;;;;-146.27;86.52;31896.78;5090915;28;20080;-70
2023/11/23 01:12:35;;;;;;;8.20;2.05;;;;;;;-146.27;86.90;31908.69;5107947;28;20028;-69
2023/11/23 01:15:01;;;;;;;11.77;2.88;;;;;;;-146.27;86.50;31876.97;5090069;28;20035;-69
2023/11/23 01:17:27;;;;;;;13.88;2.33;;;;;;;-146.27;86.13;31886.88;5101532;28;20051;-68
2023/11/23 01:19:53;;;;;;;12.07;2.30;;;;;;;-146.27;85.48;31817.47;5067383;28;20032;-68
2023/11/23 01:22:18;;;;;;;10.45;2.40;;;;;;;-146.27;85.97;31906.72;5094575;28;20033;-69
2023/11/23 01:24:44;;;;;;;13.40;2.55;;;;;;;-146.27;85.37;31819.44;5101900;28;20032;-68
2023/11/23 01:27:09;;;;;;;7.10;2.17;;;;;;;-146.27;86.41;31882.91;5105840;28;20062;-70
2023/11/23 01:29:34;;;;;;;9.23;2.30;;;;;;;-146.27;86.09;31874.97;5101901;28;20483;-69
2023/11/23 01:32:00;;;;;;;5.93;2.80;;;;;;;-146.27;86.08;31886.88;5108737;28;20483;-67
2023/11/23 01:34:26;;;;;;;6.22;2.20;;;;;;;-146.27;84.77;31767.88;5105166;28;20035;-69
2023/11/23 01:36:52;;;;;;;7.63;2.00;;;;;;;-146.27;86.00;31898.78;5102155;28;20118;-68
2023/11/23 01:39:17;;;;;;;14.95;2.55;;;;;;;-146.27;85.37;31763.91;5098235;28;20539;-69
2023/11/23 01:41:43;;;;;;;8.98;2.42;;;;;;;-146.27;86.24;31972.16;5095893;28;20032;-68
2023/11/23 01:44:08;;;;;;;12.98;2.10;;;;;;;-146.27;87.28;32021.75;5091939;28;20377;-69
2023/11/23 01:46:33;;;;;;;13.70;2.78;;;;;;;-146.27;87.08;31950.34;5099655;28;20019;-68
2023/11/23 01:49:01;;;;;;;13.40;2.70;;;;;;;-146.27;86.60;31914.66;5101455;28;20503;-68
2023/11/23 01:51:27;;;;;;;7.38;1.90;;;;;;;-146.27;86.51;31932.50;5099144;28;20060;-68
2023/11/23 01:53:53;;;;;;;11.05;2.00;;;;;;;-146.27;86.80;31994.00;5103026;28;20762;-67
2023/11/23 01:56:20;;;;;;;11.25;2.15;;;;;;;-146.27;86.73;31994.00;5096412;28;20127;-69
2023/11/23 01:58:46;;;;;;;7.78;2.10;;;;;;;-146.27;86.23;32023.75;5098669;28;20128;-69
2023/11/23 02:01:12;;;;;;;7.40;2.00;;;;;;;-146.27;85.82;31874.97;5103657;28;20498;-67
2023/11/23 02:03:38;;;;;;;11.45;2.60;;;;;;;-146.27;85.97;31962.25;5094256;28;20023;-68
2023/11/23 02:06:04;;;;;;;8.45;2.20;;;;;;;-146.27;86.51;31986.06;5089705;28;20530;-69
2023/11/23 02:08:29;;;;;;;9.15;2.17;;;;;;;-146.27;85.88;31938.44;5071666;28;20056;-69
2023/11/23 02:10:55;;;;;;;8.35;2.00;;;;;;;-146.27;86.16;31974.16;5092278;28;20016;-69
2023/11/23 02:13:21;;;;;;;14.98;2.60;;;;;;;-146.27;86.40;31958.28;5102586;28;20369;-69
2023/11/23 02:15:47;;;;;;;11.10;2.03;;;;;;;-146.27;86.45;31944.41;5098928;28;20031;-69
2023/11/23 02:18:13;;;;;;;11.20;2.20;;;;;;;-146.27;86.64;31980.09;5090006;28;20047;-69
2023/11/23 02:20:38;;;;;;;11.32;1.90;;;;;;;-146.27;86.62;32005.88;5071222;28;20056;-69
2023/11/23 02:23:04;;;;;;;12.20;2.85;;;;;;;-146.27;86.83;31994.00;5102508;28;20015;-69
2023/11/23 02:25:29;;;;;;;8.35;3.22;;;;;;;-146.27;86.80;31918.63;5109366;28;20020;-69
2023/11/23 02:27:55;;;;;;;10.82;1.70;;;;;;;-146.27;86.87;31988.03;5096729;28;20093;-68
2023/11/23 02:30:21;;;;;;;12.35;1.88;;;;;;;-146.27;86.57;31934.47;5093346;28;20028;-69
2023/11/23 02:32:48;;;;;;;9.82;1.98;;;;;;;-146.27;86.37;31952.34;5108246;28;20110;-68
2023/11/23 02:35:13;;;;;;;8.52;2.10;;;;;;;-146.27;85.48;31874.97;5101126;28;20116;-69
2023/11/23 02:37:42;;;;;;;8.80;1.85;;;;;;;-146.27;86.16;31863.09;5110380;28;20482;-69
2023/11/23 02:40:10;;;;;;;15.30;3.00;;;;;;;-146.27;85.87;31884.91;5098521;28;20394;-69
2023/11/23 02:42:36;;;;;;;13.18;2.35;;;;;;;-146.27;86.40;31942.41;5106345;28;20020;-68
2023/11/23 02:45:01;;;;;;;7.28;2.08;;;;;;;-146.27;86.16;31942.41;5096500;28;20039;-68
2023/11/23 02:47:27;;;;;;;11.63;2.58;;;;;;;-146.27;87.29;31980.09;5094479;28;20020;-68
2023/11/23 02:49:52;;;;;;;9.60;2.50;;;;;;;-146.27;87.22;31982.09;5099402;28;20035;-68
2023/11/23 02:52:17;;;;;;;10.50;2.28;;;;;;;-146.27;87.32;32027.72;5112578;28;20041;-69
2023/11/23 02:54:43;;;;;;;9.40;2.50;;;;;;;-146.27;86.53;31938.44;5100650;28;20487;-69
2023/11/23 02:57:08;;;;;;;13.13;2.30;;;;;;;-146.27;87.16;32031.66;5097702;28;20020;-68
2023/11/23 02:59:33;;;;;;;12.90;2.10;;;;;;;-146.27;87.19;32009.84;5100527;28;20110;-69
2023/11/23 03:01:59;;;;;;;9.52;1.92;;;;;;;-146.27;87.01;31984.06;5103711;28;20166;-68
2023/11/23 03:04:24;;;;;;;9.70;2.17;;;;;;;-146.27;87.21;32023.75;5097666;28;20026;-67
2023/11/23 03:06:49;;;;;;;13.18;2.55;;;;;;;-146.27;86.80;31847.22;5092762;28;20024;-67
2023/11/23 03:09:19;;;;;;;17.83;2.85;;;;;;;-146.27;86.25;31926.56;5098844;28;21063;-68
2023/11/23 03:11:45;;;;;;;15.77;2.72;;;;;;;-146.27;86.59;31934.47;5112070;28;20379;-69
2023/11/23 03:14:10;;;;;;;17.83;2.63;;;;;;;-146.27;86.32;31974.16;5106538;28;20092;-68
2023/11/23 03:16:35;;;;;;;8.32;2.20;;;;;;;-146.27;86.24;31946.38;5096335;28;20027;-68
2023/11/23 03:19:01;;;;;;;6.32;2.03;;;;;;;-146.27;86.12;31954.31;5108164;28;20048;-69
2023/11/23 03:21:26;;;;;;;12.13;2.05;;;;;;;-146.27;86.58;31942.41;5099275;28;21023;-68
2023/11/23 03:23:51;;;;;;;9.85;2.30;;;;;;;-146.27;86.83;31986.06;5104267;28;20023;-68
2023/11/23 03:26:17;;;;;;;10.77;1.95;;;;;;;-146.27;86.53;31940.44;5108991;28;20143;-69
2023/11/23 03:28:42;;;;;;;7.55;2.35;;;;;;;-146.27;86.66;32027.72;5100909;28;20031;-68
2023/11/23 03:31:07;;;;;;;10.13;2.22;;;;;;;-146.27;85.70;31918.63;5109068;28;20157;-67
2023/11/23 03:33:33;;;;;;;10.15;1.90;;;;;;;-146.27;86.77;31990.03;5092970;28;20040;-68
2023/11/23 03:35:58;;;;;;;8.32;1.95;;;;;;;-146.27;86.38;31942.41;5101964;28;20031;-69
2023/11/23 03:38:24;;;;;;;10.85;1.80;;;;;;;-146.27;85.75;31952.34;5095303;28;20077;-69
2023/11/23 03:40:50;;;;;;;4.60;1.80;;;;;;;-146.27;85.31;31851.19;5096975;28;20411;-68
2023/11/23 03:43:15;;;;;;;10.85;1.92;;;;;;;-146.27;85.45;31962.25;5093013;28;20116;-68
2023/11/23 03:45:41;;;;;;;10.73;1.90;;;;;;;-146.27;86.06;32045.56;5097652;28;20046;-68
2023/11/23 03:48:06;;;;;;;12.05;2.05;;;;;;;-146.27;85.69;31966.22;5097136;28;20030;-69
2023/11/23 03:50:33;;;;;;;8.88;1.38;;;;;;;-146.27;86.61;32041.59;5107473;28;20016;-68
2023/11/23 03:52:59;;;;;;;7.40;1.90;;;;;;;-146.27;85.52;31962.25;5111495;28;20490;-68
2023/11/23 03:55:24;;;;;;;10.07;2.00;;;;;;;-146.27;85.97;32005.88;5104635;28;20027;-68
2023/11/23 03:57:50;;;;;;;12.70;2.15;;;;;;;-146.27;87.02;32124.91;5092446;28;20081;-69
2023/11/23 04:00:16;;;;;;;4.10;1.75;;;;;;;-146.27;86.32;31966.22;5102878;28;20310;-68
2023/11/23 04:02:46;;;;;;;7.80;2.22;;;;;;;-146.27;85.75;31974.16;5090240;28;20016;-69
2023/11/23 04:05:15;;;;;;;10.43;1.90;;;;;;;-146.27;84.94;31940.44;5081558;28;20479;-68
2023/11/23 04:07:40;;;;;;;14.85;3.10;;;;;;;-146.27;85.09;31918.63;5103303;28;20024;-68
2023/11/23 04:10:07;;;;;;;12.25;2.00;;;;;;;-146.27;85.28;31910.69;5108382;28;20040;-69
2023/11/23 04:12:32;;;;;;;14.07;2.17;;;;;;;-146.27;84.92;31888.88;5095614;28;20027;-68
2023/11/23 04:14:57;;;;;;;17.60;2.47;;;;;;;-146.27;85.91;32025.72;5102534;28;20413;-70
2023/11/23 04:17:23;;;;;;;10.77;2.50;;;;;;;-146.27;85.72;31954.31;5102442;28;20035;-70
2023/11/23 04:19:48;;;;;;;9.73;2.15;;;;;;;-146.27;86.86;32011.84;5096920;28;20031;-68
2023/11/23 04:22:13;;;;;;;9.23;2.33;;;;;;;-146.27;86.21;31930.50;5107389;28;20050;-68
2023/11/23 04:24:41;;;;;;;10.05;2.15;;;;;;;-146.27;85.61;31898.78;5106511;28;20028;-67
2023/11/23 04:27:06;;;;;;;9.48;1.90;;;;;;;-146.27;85.67;31930.50;5108319;28;20020;-68
2023/11/23 04:29:32;;;;;;;3.72;1.92;;;;;;;-146.27;86.37;31956.31;5107304;28;20031;-68
2023/11/23 04:31:57;;;;;;;12.18;1.92;;;;;;;-146.27;85.98;31914.66;5102518;28;20020;-68
2023/11/23 04:34:23;;;;;;;12.18;2.20;;;;;;;-146.27;86.46;31942.41;5098765;28;20038;-68
2023/11/23 04:36:48;;;;;;;11.82;1.95;;;;;;;-146.27;86.05;31924.56;5078871;28;20031;-68
2023/11/23 04:39:14;;;;;;;11.05;1.73;;;;;;;-146.27;85.68;31906.72;5093987;28;20042;-69
2023/11/23 04:41:40;;;;;;;9.38;2.30;;;;;;;-146.27;86.52;32011.84;5101207;28;20507;-68
2023/11/23 04:44:05;;;;;;;18.05;2.05;;;;;;;-146.27;85.97;31924.56;5097189;28;20027;-70
2023/11/23 04:46:32;;;;;;;6.35;1.65;;;;;;;-146.27;85.60;31946.38;5099024;28;20113;-69
2023/11/23 04:48:57;;;;;;;16.00;3.47;;;;;;;-146.27;86.03;31974.16;5100487;28;20568;-68
2023/11/23 04:51:22;;;;;;;14.07;2.15;;;;;;;-146.27;86.80;32003.91;5106476;28;20061;-69
2023/11/23 04:53:48;;;;;;;10.98;2.10;;;;;;;-146.27;87.00;31999.94;5094551;28;20114;-69
2023/11/23 04:56:13;;;;;;;8.77;1.88;;;;;;;-146.27;86.78;32017.78;5097177;28;20033;-68
2023/11/23 04:58:39;;;;;;;9.10;2.00;;;;;;;-146.27;86.02;31936.47;5103476;28;20050;-69
2023/11/23 05:01:05;;;;;;;6.78;1.70;;;;;;;-146.27;86.19;31926.56;5078826;28;20020;-68
2023/11/23 05:03:31;;;;;;;15.50;2.58;;;;;;;-146.27;87.65;32009.84;5091919;28;20107;-69
2023/11/23 05:05:56;;;;;;;15.38;2.25;;;;;;;-146.27;87.54;32021.75;5090065;28;20095;-69
2023/11/23 05:08:22;;;;;;;13.15;3.90;;;;;;;-146.27;86.76;31978.13;5094163;28;20031;-68
2023/11/23 05:10:47;;;;;;;10.27;1.88;;;;;;;-146.27;86.51;31966.22;5106155;28;20034;-70
2023/11/23 05:13:14;;;;;;;7.88;1.83;;;;;;;-146.27;87.10;31997.94;5099532;28;20040;-68
2023/11/23 05:15:39;;;;;;;8.90;2.03;;;;;;;-146.27;86.94;32005.88;5095449;28;20483;-68
2023/11/23 05:18:05;;;;;;;10.27;1.92;;;;;;;-146.27;87.77;32039.59;5102411;28;20039;-67
2023/11/23 05:20:30;;;;;;;7.30;2.58;;;;;;;-146.27;87.29;31988.03;5092384;28;20097;-69
2023/11/23 05:22:56;;;;;;;7.15;2.20;;;;;;;-146.27;87.00;31930.50;5099084;28;20031;-68
2023/11/23 05:25:21;;;;;;;11.93;1.98;;;;;;;-146.27;86.59;31922.59;5095896;28;20023;-68
2023/11/23 05:27:46;;;;;;;12.93;1.73;;;;;;;-146.27;87.16;31978.13;5094666;28;20031;-68
2023/11/23 05:30:12;;;;;;;12.23;1.70;;;;;;;-146.27;86.88;31922.59;5094311;28;20028;-68
2023/11/23 05:32:38;;;;;;;12.88;2.15;;;;;;;-146.27;86.69;31950.34;5094826;28;20664;-68
2023/11/23 05:35:05;;;;;;;12.68;1.73;;;;;;;-146.27;86.67;31994.00;5104853;28;20055;-67
2023/11/23 05:37:31;;;;;;;13.82;1.67;;;;;;;-146.27;86.57;31908.69;5100197;28;20152;-68
2023/11/23 05:39:56;;;;;;;9.20;1.65;;;;;;;-146.27;86.78;31984.06;5096315;28;20050;-69
2023/11/23 05:42:22;;;;;;;9.27;2.10;;;;;;;-146.27;88.46;32051.50;5094929;28;20494;-69
2023/11/23 05:44:48;;;;;;;9.50;1.90;;;;;;;-146.27;87.86;32003.91;5090235;28;20023;-68
2023/11/23 05:47:14;;;;;;;10.93;2.03;;;;;;;-146.27;87.16;31958.28;5105373;28;20035;-68
2023/11/23 05:49:39;;;;;;;9.05;2.28;;;;;;;-146.27;87.87;31986.06;5092270;28;20449;-68
2023/11/23 05:52:07;;;;;;;14.45;1.98;;;;;;;-146.27;87.41;31950.34;5089943;28;20103;-68
2023/11/23 05:54:32;;;;;;;10.82;2.05;;;;;;;-146.27;86.70;31948.38;5081676;28;20471;-68
2023/11/23 05:56:58;;;;;;;4.22;1.63;;;;;;;-146.27;85.74;31825.41;5102967;28;20072;-68
2023/11/23 05:59:23;;;;;;;11.93;1.95;;;;;;;-146.27;87.48;31980.09;5104404;28;20392;-69
2023/11/23 06:01:50;;;;;;;13.98;2.42;;;;;;;-146.27;86.29;31863.09;5095795;28;20024;-68
2023/11/23 06:04:16;;;;;;;10.27;2.45;;;;;;;-146.27;86.48;31904.72;5102591;28;20043;-69
2023/11/23 06:06:41;;;;;;;7.43;2.42;;;;;;;-146.27;85.97;31871.00;5096512;28;20420;-68
2023/11/23 06:09:09;;;;;;;14.80;2.00;;;;;;;-146.27;86.18;31867.03;5098781;28;20550;-69
2023/11/23 06:11:34;;;;;;;11.63;1.80;;;;;;;-146.27;86.12;31886.88;5092039;28;20078;-68
2023/11/23 06:14:00;;;;;;;10.35;2.20;;;;;;;-146.27;87.02;31960.28;5101965;28;20023;-67
2023/11/23 06:16:25;;;;;;;16.38;2.05;;;;;;;-146.27;86.78;31962.25;5096332;28;20416;-68
2023/11/23 06:18:50;;;;;;;11.20;1.67;;;;;;;-146.27;87.71;32023.75;5102294;28;20475;-67
2023/11/23 06:21:16;;;;;;;7.60;1.92;;;;;;;-146.27;87.26;31908.69;5108370;28;20023;-68
2023/11/23 06:23:41;;;;;;;15.70;2.00;;;;;;;-146.27;87.59;31900.75;5092516;28;20024;-67
2023/11/23 06:26:07;;;;;;;6.72;1.80;;;;;;;-146.27;87.56;31974.16;5105942;28;20027;-69
2023/11/23 06:28:33;;;;;;;16.92;1.90;;;;;;;-146.27;87.97;32029.69;5101216;28;20027;-70
2023/11/23 06:30:58;;;;;;;12.98;1.70;;;;;;;-146.27;87.58;31910.69;5097465;28;20051;-69
2023/11/23 06:33:23;;;;;;;11.25;1.60;;;;;;;-146.27;86.24;31823.41;5105586;28;20693;-71
2023/11/23 06:35:50;;;;;;;10.63;2.33;;;;;;;-146.27;86.14;31801.59;5109983;28;20471;-69
2023/11/23 06:38:15;;;;;;;9.75;2.35;;;;;;;-146.27;87.46;31886.88;5099855;28;20615;-69
2023/11/23 06:40:41;;;;;;;10.50;2.58;;;;;;;-146.27;88.60;32055.47;5100977;28;20131;-69
2023/11/23 06:43:09;;;;;;;15.32;2.33;;;;;;;-146.27;87.75;31898.78;5104730;28;20379;-71
2023/11/23 06:45:37;;;;;;;8.85;2.20;;;;;;;-146.27;87.56;31910.69;5098632;28;20028;-67
2023/11/23 06:48:04;;;;;;;13.85;2.55;;;;;;;-146.27;87.51;31966.22;5077976;28;20065;-67
2023/11/23 06:50:30;;;;;;;13.77;1.90;;;;;;;-146.27;87.61;31966.22;5102011;28;20123;-68
2023/11/23 06:52:56;;;;;;;10.60;2.17;;;;;;;-146.27;86.81;31884.91;5109833;27;20110;-68
2023/11/23 06:55:21;;;;;;;16.73;2.33;;;;;;;-146.27;87.43;31882.91;5094859;28;20055;-68
2023/11/23 06:57:50;;;;;;;11.40;1.83;;;;;;;-146.27;87.29;31863.09;5099298;28;20503;-68
2023/11/23 07:00:23;;;;;;;12.15;1.92;;;;;;;-146.27;87.64;31882.91;5103359;28;20071;-69
2023/11/23 07:03:00;;;;;;;15.87;2.63;;;;;;;-146.27;87.22;31831.34;5093700;28;20148;-69
2023/11/23 07:05:28;;;;;;;12.90;2.45;;;;;;;-146.27;87.74;31934.47;5094290;28;20033;-68
2023/11/23 07:07:55;;;;;;;20.48;2.50;;;;;;;-146.27;87.98;31948.38;5093428;28;20027;-70
2023/11/23 07:10:20;;;;;;;10.20;2.00;;;;;;;-146.27;88.44;31962.25;5093644;28;20031;-68
2023/11/23 07:12:46;;;;;;;11.98;2.50;;;;;;;-146.27;88.75;31942.41;5098759;28;20020;-67
2023/11/23 07:15:13;;;;;;;12.13;1.90;;;;;;;-146.27;87.91;31825.41;5098797;28;20808;-67
2023/11/23 07:17:39;;;;;;;10.50;2.22;;;;;;;-146.27;88.01;31857.13;5101497;28;20138;-67
2023/11/23 07:20:05;;;;;;;15.15;2.90;;;;;;;-146.27;87.89;31880.94;5096621;28;20024;-69
2023/11/23 07:22:31;;;;;;;11.52;2.53;;;;;;;-146.27;87.67;31916.63;5100726;28;20016;-70
2023/11/23 07:24:57;;;;;;;13.10;2.03;;;;;;;-146.27;87.64;31799.63;5099410;28;20488;-69
2023/11/23 07:27:22;;;;;;;7.65;2.03;;;;;;;-146.27;88.10;31871.00;5095432;28;20027;-69
2023/11/23 07:29:49;;;;;;;16.60;2.28;;;;;;;-146.27;88.18;31890.84;5099237;28;20047;-69
2023/11/23 07:32:16;;;;;;;14.82;2.35;;;;;;;-146.27;88.33;31882.91;5096624;28;20024;-69
2023/11/23 07:34:41;;;;;;;12.35;2.40;;;;;;;-146.27;88.52;31865.06;5099483;28;20475;-69
2023/11/23 07:37:08;;;;;;;8.07;2.08;;;;;;;-146.27;88.35;31865.06;5097210;28;20062;-69
2023/11/23 07:39:33;;;;;;;8.75;1.88;;;;;;;-146.27;89.19;31972.16;5105086;28;20522;-67
2023/11/23 07:41:59;;;;;;;13.02;2.00;;;;;;;-146.27;88.87;31873.00;5093351;28;20047;-68
2023/11/23 07:44:25;;;;;;;11.88;2.30;;;;;;;-146.27;89.22;31894.81;5101258;28;20455;-68
2023/11/23 07:46:50;;;;;;;14.98;2.13;;;;;;;-146.27;88.31;31898.78;5110921;28;20035;-70
2023/11/23 07:49:16;;;;;;;8.93;1.85;;;;;;;-146.27;87.49;31797.63;5111411;28;20422;-70
2023/11/23 07:51:42;;;;;;;13.13;2.85;;;;;;;-146.27;87.63;31823.41;5105503;28;20013;-68
2023/11/23 07:54:07;;;;;;;17.05;3.63;;;;;;;-146.27;86.89;31750.03;5092618;28;20049;-71
2023/11/23 07:56:33;;;;;;;11.20;2.53;;;;;;;-146.27;86.94;31791.69;5091359;28;20067;-71
2023/11/23 07:58:59;;;;;;;17.20;2.13;;;;;;;-146.27;86.54;31763.91;5093218;28;20030;-70
2023/11/23 08:01:25;;;;;;;9.57;1.80;;;;;;;-146.27;86.21;31724.25;5075425;28;20035;-70
2023/11/23 08:03:51;;;;;;;11.93;2.50;;;;;;;-146.27;86.17;31664.75;5074034;28;20388;-70
2023/11/23 08:06:17;;;;;;;14.40;2.40;;;;;;;-146.27;85.54;31668.72;5099076;28;20022;-69
2023/11/23 08:08:42;;;;;;;13.85;2.00;;;;;;;-146.27;85.37;31658.78;5095607;28;20027;-69
2023/11/23 08:11:08;;;;;;;24.08;3.45;;;;;;;-146.27;84.99;31644.91;5091587;28;21789;-68
2023/11/23 08:13:33;;;;;;;9.95;1.58;;;;;;;-146.27;84.99;31593.34;5092080;28;20024;-68
2023/11/23 08:16:02;;;;;;;13.60;2.47;;;;;;;-146.27;84.49;31533.84;5091981;28;20016;-68
2023/11/23 08:18:27;;;;;;;7.15;2.05;;;;;;;-146.27;84.22;31484.28;5093085;28;20436;-68
2023/11/23 08:20:52;;;;;;;12.80;1.95;;;;;;;-146.27;85.04;31621.13;5096204;28;20027;-68
2023/11/23 08:23:18;;;;;;;8.15;1.58;;;;;;;-146.27;85.36;31638.97;5098739;28;20405;-68
2023/11/23 08:25:43;;;;;;;4.78;1.70;;;;;;;-146.27;84.61;31510.06;5091798;28;20162;-69
2023/11/23 08:28:09;;;;;;;14.27;2.30;;;;;;;-146.27;84.34;31506.09;5096267;28;20027;-69
2023/11/23 08:30:35;;;;;;;12.40;2.28;;;;;;;-146.27;83.47;31422.78;5097162;28;20335;-68
2023/11/23 08:33:00;;;;;;;14.90;2.10;;;;;;;-146.27;82.98;31373.22;5103279;28;20024;-68
2023/11/23 08:35:25;;;;;;;9.75;1.90;;;;;;;-146.27;83.58;31395.03;5108933;28;20031;-68
2023/11/23 08:37:51;;;;;;;16.90;2.70;;;;;;;-146.27;83.87;31482.28;5096266;28;20110;-69
2023/11/23 08:40:16;;;;;;;7.55;1.80;;;;;;;-146.27;83.81;31440.66;5092287;28;20158;-69
2023/11/23 08:42:41;;;;;;;14.57;2.90;;;;;;;-146.27;83.36;31397.00;5106594;28;20119;-68
2023/11/23 08:45:08;;;;;;;11.00;1.80;;;;;;;-146.27;84.20;31510.06;5100324;28;20023;-68
2023/11/23 08:47:33;;;;;;;13.10;2.13;;;;;;;-146.27;83.34;31446.59;5073903;28;20036;-68
2023/11/23 08:49:58;;;;;;;9.35;1.90;;;;;;;-146.27;83.40;31446.59;5098309;28;20024;-68
2023/11/23 08:52:24;;;;;;;13.27;2.60;;;;;;;-146.27;84.01;31537.81;5111586;28;20016;-67
2023/11/23 08:54:49;;;;;;;8.68;2.30;;;;;;;-146.27;82.90;31402.97;5099270;28;20034;-67
2023/11/23 08:57:15;;;;;;;17.15;1.65;;;;;;;-146.27;82.32;31379.16;5093717;28;20031;-68
2023/11/23 08:59:40;;;;;;;11.75;1.55;;;;;;;-146.27;82.34;31321.66;5101897;28;20131;-68
2023/11/23 09:02:07;;;;;;;8.95;1.50;;;;;;;-146.27;81.83;31347.44;5100369;28;20062;-68
2023/11/23 09:04:36;;;;;;;10.07;2.20;;;;;;;-146.27;82.01;31327.59;5093932;28;20483;-68
2023/11/23 09:07:03;;;;;;;8.82;1.77;;;;;;;-146.27;80.98;31242.34;5094405;28;20026;-67
2023/11/23 09:09:28;;;;;;;7.18;2.35;;;;;;;-146.27;81.57;31248.28;5090709;28;20031;-67
2023/11/23 09:11:54;;;;;;;11.68;1.90;;;;;;;-146.27;82.73;31369.25;5094493;28;20020;-67
2023/11/23 09:14:20;;;;;;;18.92;2.38;;;;;;;-146.27;81.96;31307.78;5090716;28;20468;-68
2023/11/23 09:16:45;;;;;;;7.68;1.38;;;;;;;-146.27;82.41;31426.75;5082941;28;20032;-67
2023/11/23 09:19:10;;;;;;;7.75;1.42;;;;;;;-146.27;81.47;31283.97;5095285;28;20487;-66
2023/11/23 09:21:36;;;;;;;8.27;2.42;;;;;;;-146.27;81.26;31242.34;5094815;28;20106;-67
2023/11/23 09:24:05;;;;;;;15.68;2.10;;;;;;;-146.27;81.43;31315.72;5098023;28;20052;-68
2023/11/23 09:26:32;;;;;;;13.70;1.95;;;;;;;-146.27;80.77;31295.88;5090738;28;20028;-68
2023/11/23 09:28:58;;;;;;;7.20;1.45;;;;;;;-146.27;80.70;31252.25;5090529;28;20467;-69
2023/11/23 09:31:28;;;;;;;8.63;1.45;;;;;;;-146.27;80.57;31226.47;5090486;28;20034;-69
2023/11/23 09:33:53;;;;;;;14.52;1.90;;;;;;;-146.27;79.98;31242.34;5089951;28;20094;-68
2023/11/23 09:36:19;;;;;;;10.43;1.73;;;;;;;-146.27;80.86;31278.03;5090724;28;20418;-68
2023/11/23 09:38:44;;;;;;;12.80;2.05;;;;;;;-146.27;80.11;31168.97;5090966;28;20032;-69
2023/11/23 09:41:14;;;;;;;6.38;1.40;;;;;;;-146.27;79.46;31113.44;5093843;28;20088;-69
2023/11/23 09:43:42;;;;;;;7.78;1.23;;;;;;;-146.27;79.61;31024.19;5104900;28;20387;-68
2023/11/23 09:46:08;;;;;;;7.93;1.70;;;;;;;-146.27;78.94;31030.16;5097495;28;20039;-68
2023/11/23 09:48:39;;;;;;;8.07;1.55;;;;;;;-146.27;78.63;31093.59;5097069;28;20610;-68
2023/11/23 09:51:09;;;;;;;6.75;1.75;;;;;;;-146.27;79.38;31121.38;5101278;28;20053;-68
2023/11/23 09:53:34;;;;;;;11.35;1.80;;;;;;;-146.27;78.91;30998.41;5096609;28;20471;-67
2023/11/23 09:56:02;;;;;;;11.23;1.35;;;;;;;-146.27;78.70;31073.78;5089658;28;20024;-67
2023/11/23 09:58:27;;;;;;;7.35;1.50;;;;;;;-146.27;77.80;30931.00;5090883;28;20032;-67
2023/11/23 10:00:52;;;;;;;4.05;1.42;;;;;;;-146.27;78.84;31129.28;5094428;28;20027;-68
2023/11/23 10:03:22;;;;;;;9.30;1.85;;;;;;;-146.27;79.14;31095.59;5093867;28;20110;-67
2023/11/23 10:05:49;;;;;;;13.35;1.65;;;;;;;-146.27;77.33;30867.56;5092591;28;20046;-68
2023/11/23 10:08:16;;;;;;;7.75;1.58;;;;;;;-146.27;78.16;30994.47;5093468;28;20028;-69
2023/11/23 10:10:42;;;;;;;8.65;1.40;;;;;;;-146.27;77.32;30821.94;5093067;28;20418;-69
2023/11/23 10:13:08;;;;;;;8.93;1.70;;;;;;;-146.27;77.04;30883.41;5095652;28;20019;-68
2023/11/23 10:15:34;;;;;;;20.27;1.75;;;;;;;-146.27;78.01;31020.22;5105549;28;20031;-68
2023/11/23 10:17:59;;;;;;;11.73;1.42;;;;;;;-146.27;79.10;31137.22;5093450;28;20051;-68
2023/11/23 10:20:26;;;;;;;5.72;2.35;;;;;;;-146.27;77.86;30855.66;5073800;28;20032;-68
2023/11/23 10:22:51;;;;;;;14.80;1.67;;;;;;;-146.27;77.39;30877.47;5090125;28;20550;-68
2023/11/23 10:25:31;;;;;;;12.02;1.92;;;;;;;-146.27;77.26;30831.84;5090097;28;20095;-68
2023/11/23 10:28:01;;;;;;;11.43;1.80;;;;;;;-146.27;79.16;31069.81;5095907;28;20028;-68
2023/11/23 10:30:28;;;;;;;13.55;2.10;;;;;;;-146.27;78.20;30802.13;5096858;28;20052;-67
2023/11/23 10:32:54;;;;;;;10.98;1.80;;;;;;;-146.27;77.29;30740.66;5094960;28;20063;-68
2023/11/23 10:35:20;;;;;;;18.08;2.33;;;;;;;-146.27;77.16;30641.50;5107734;28;20356;-69
2023/11/23 10:37:53;;;;;;;7.93;1.83;;;;;;;-146.27;75.16;30356.00;5091989;28;20027;-68
2023/11/23 10:40:21;;;;;;;12.90;2.50;;;;;;;-146.27;74.85;30528.50;5100353;28;20035;-68
2023/11/23 10:42:49;;;;;;;12.50;1.85;;;;;;;-146.27;75.12;30518.56;5100112;28;20024;-68
2023/11/23 10:45:17;;;;;;;14.02;2.25;;;;;;;-146.27;76.93;30778.31;5100572;28;20035;-67
2023/11/23 10:47:44;;;;;;;11.77;2.10;;;;;;;-146.27;78.42;30950.84;5092302;28;20441;-68
2023/11/23 10:50:10;;;;;;;11.48;2.15;;;;;;;-146.27;78.74;30901.25;5105830;28;20027;-68
2023/11/23 10:52:35;;;;;;;10.38;1.90;;;;;;;-146.27;79.36;30917.13;5103034;28;20024;-68
2023/11/23 10:55:01;;;;;;;10.80;1.77;;;;;;;-146.27;78.33;30841.78;5098761;28;20028;-68
2023/11/23 10:57:28;;;;;;;9.00;1.70;;;;;;;-146.27;78.41;30881.44;5102059;28;20039;-68
2023/11/23 10:59:55;;;;;;;9.00;1.73;;;;;;;-146.27;78.57;30851.69;5093306;28;20023;-68
2023/11/23 11:02:22;;;;;;;9.32;1.33;;;;;;;-146.27;78.87;30875.47;5098083;28;20429;-68
2023/11/23 11:04:47;;;;;;;14.13;1.85;;;;;;;-146.27;79.00;30919.09;5099215;28;20107;-68
2023/11/23 11:07:12;;;;;;;10.38;2.55;;;;;;;-146.27;78.98;30913.16;5097143;28;20130;-70